sensor_id;sensor_type;location;lat;lon;timestamp;P1;durP1;ratioP1;P2;durP2;ratioP2
46216;SDS011;47258;59.424;13.482;2023-03-23T00:01:10;41.88;;;8.43;;
46216;SDS011;47258;59.424;13.482;2023-03-23T00:03:45;64.17;;;10.63;;
46216;SDS011;47258;59.424;13.482;2023-03-23T00:06:14;53.20;;;7.40;;
46216;SDS011;47258;59.424;13.482;2023-03-23T00:08:43;31.70;;;7.13;;
46216;SDS011;47258;59.424;13.482;2023-03-23T00:11:12;48.38;;;7.93;;
46216;SDS011;47258;59.424;13.482;2023-03-23T00:13:43;52.53;;;7.65;;
46216;SDS011;47258;59.424;13.482;2023-03-23T00:16:14;35.30;;;7.13;;
46216;SDS011;47258;59.424;13.482;2023-03-23T00:18:45;42.72;;;8.30;;
46216;SDS011;47258;59.424;13.482;2023-03-23T00:21:16;42.17;;;7.47;;
46216;SDS011;47258;59.424;13.482;2023-03-23T00:23:44;45.60;;;7.25;;
46216;SDS011;47258;59.424;13.482;2023-03-23T00:26:14;55.33;;;9.63;;
46216;SDS011;47258;59.424;13.482;2023-03-23T00:28:43;55.42;;;9.85;;
46216;SDS011;47258;59.424;13.482;2023-03-23T00:31:14;41.50;;;8.43;;
46216;SDS011;47258;59.424;13.482;2023-03-23T00:33:42;50.88;;;7.93;;
46216;SDS011;47258;59.424;13.482;2023-03-23T00:36:11;47.13;;;7.55;;
46216;SDS011;47258;59.424;13.482;2023-03-23T00:41:09;67.72;;;12.30;;
46216;SDS011;47258;59.424;13.482;2023-03-23T00:43:37;56.80;;;8.18;;
46216;SDS011;47258;59.424;13.482;2023-03-23T00:46:05;40.20;;;6.43;;
46216;SDS011;47258;59.424;13.482;2023-03-23T00:51:11;50.25;;;7.97;;
46216;SDS011;47258;59.424;13.482;2023-03-23T00:53:40;53.13;;;7.72;;
46216;SDS011;47258;59.424;13.482;2023-03-23T00:56:08;57.70;;;8.25;;
46216;SDS011;47258;59.424;13.482;2023-03-23T00:58:36;72.38;;;9.02;;
46216;SDS011;47258;59.424;13.482;2023-03-23T01:01:05;60.30;;;11.27;;
46216;SDS011;47258;59.424;13.482;2023-03-23T01:03:34;50.72;;;8.32;;
46216;SDS011;47258;59.424;13.482;2023-03-23T01:06:04;69.32;;;9.52;;
46216;SDS011;47258;59.424;13.482;2023-03-23T01:08:38;44.97;;;8.18;;
46216;SDS011;47258;59.424;13.482;2023-03-23T01:11:11;67.97;;;11.73;;
46216;SDS011;47258;59.424;13.482;2023-03-23T01:13:40;68.32;;;9.77;;
46216;SDS011;47258;59.424;13.482;2023-03-23T01:16:09;62.58;;;8.18;;
46216;SDS011;47258;59.424;13.482;2023-03-23T01:18:39;53.05;;;7.82;;
46216;SDS011;47258;59.424;13.482;2023-03-23T01:21:07;61.92;;;9.65;;
46216;SDS011;47258;59.424;13.482;2023-03-23T01:23:38;53.35;;;7.47;;
46216;SDS011;47258;59.424;13.482;2023-03-23T01:26:06;53.97;;;9.07;;
46216;SDS011;47258;59.424;13.482;2023-03-23T01:28:36;60.17;;;9.43;;
46216;SDS011;47258;59.424;13.482;2023-03-23T01:31:06;56.95;;;8.45;;
46216;SDS011;47258;59.424;13.482;2023-03-23T01:33:39;61.78;;;9.20;;
46216;SDS011;47258;59.424;13.482;2023-03-23T01:36:09;73.38;;;10.93;;
46216;SDS011;47258;59.424;13.482;2023-03-23T01:38:38;57.47;;;10.13;;
46216;SDS011;47258;59.424;13.482;2023-03-23T01:41:08;63.28;;;8.52;;
46216;SDS011;47258;59.424;13.482;2023-03-23T01:46:28;66.05;;;8.98;;
46216;SDS011;47258;59.424;13.482;2023-03-23T01:51:31;50.38;;;7.40;;
46216;SDS011;47258;59.424;13.482;2023-03-23T01:54:03;68.70;;;9.85;;
46216;SDS011;47258;59.424;13.482;2023-03-23T01:56:37;68.78;;;10.85;;
46216;SDS011;47258;59.424;13.482;2023-03-23T01:59:10;62.63;;;7.50;;
46216;SDS011;47258;59.424;13.482;2023-03-23T02:01:38;69.20;;;9.88;;
46216;SDS011;47258;59.424;13.482;2023-03-23T02:04:11;60.30;;;8.20;;
46216;SDS011;47258;59.424;13.482;2023-03-23T02:06:41;79.50;;;10.10;;
46216;SDS011;47258;59.424;13.482;2023-03-23T02:09:12;55.35;;;8.10;;
46216;SDS011;47258;59.424;13.482;2023-03-23T02:11:43;64.35;;;8.43;;
46216;SDS011;47258;59.424;13.482;2023-03-23T02:14:11;55.63;;;9.15;;
46216;SDS011;47258;59.424;13.482;2023-03-23T02:16:43;63.35;;;10.68;;
46216;SDS011;47258;59.424;13.482;2023-03-23T02:19:23;53.10;;;7.60;;
46216;SDS011;47258;59.424;13.482;2023-03-23T02:22:36;58.40;;;7.93;;
46216;SDS011;47258;59.424;13.482;2023-03-23T02:28:34;64.72;;;10.90;;
46216;SDS011;47258;59.424;13.482;2023-03-23T02:31:38;48.58;;;8.40;;
46216;SDS011;47258;59.424;13.482;2023-03-23T02:34:14;59.50;;;10.47;;
46216;SDS011;47258;59.424;13.482;2023-03-23T02:36:46;64.63;;;9.98;;
46216;SDS011;47258;59.424;13.482;2023-03-23T02:39:19;66.00;;;7.28;;
46216;SDS011;47258;59.424;13.482;2023-03-23T02:41:51;60.10;;;9.90;;
46216;SDS011;47258;59.424;13.482;2023-03-23T02:44:22;59.53;;;8.63;;
46216;SDS011;47258;59.424;13.482;2023-03-23T02:46:55;54.03;;;8.02;;
46216;SDS011;47258;59.424;13.482;2023-03-23T02:49:26;60.75;;;10.68;;
46216;SDS011;47258;59.424;13.482;2023-03-23T02:51:57;63.45;;;8.43;;
46216;SDS011;47258;59.424;13.482;2023-03-23T02:54:31;53.65;;;7.80;;
46216;SDS011;47258;59.424;13.482;2023-03-23T02:57:01;53.53;;;7.80;;
46216;SDS011;47258;59.424;13.482;2023-03-23T02:59:29;61.40;;;11.95;;
46216;SDS011;47258;59.424;13.482;2023-03-23T03:01:59;51.35;;;8.77;;
46216;SDS011;47258;59.424;13.482;2023-03-23T03:04:33;51.92;;;8.25;;
46216;SDS011;47258;59.424;13.482;2023-03-23T03:10:10;53.10;;;7.55;;
46216;SDS011;47258;59.424;13.482;2023-03-23T03:12:48;54.55;;;11.45;;
46216;SDS011;47258;59.424;13.482;2023-03-23T03:15:25;65.00;;;9.20;;
46216;SDS011;47258;59.424;13.482;2023-03-23T03:17:59;48.58;;;7.30;;
46216;SDS011;47258;59.424;13.482;2023-03-23T03:20:33;51.75;;;10.10;;
46216;SDS011;47258;59.424;13.482;2023-03-23T03:23:06;36.60;;;7.38;;
46216;SDS011;47258;59.424;13.482;2023-03-23T03:25:38;47.67;;;7.63;;
46216;SDS011;47258;59.424;13.482;2023-03-23T03:28:12;55.65;;;7.93;;
46216;SDS011;47258;59.424;13.482;2023-03-23T03:30:41;42.58;;;7.78;;
46216;SDS011;47258;59.424;13.482;2023-03-23T03:33:11;52.42;;;8.77;;
46216;SDS011;47258;59.424;13.482;2023-03-23T03:35:44;47.47;;;8.45;;
46216;SDS011;47258;59.424;13.482;2023-03-23T03:38:13;62.33;;;7.70;;
46216;SDS011;47258;59.424;13.482;2023-03-23T03:40:40;54.47;;;7.85;;
46216;SDS011;47258;59.424;13.482;2023-03-23T03:43:07;52.00;;;8.35;;
46216;SDS011;47258;59.424;13.482;2023-03-23T03:45:36;49.85;;;9.45;;
46216;SDS011;47258;59.424;13.482;2023-03-23T03:48:04;45.80;;;8.43;;
46216;SDS011;47258;59.424;13.482;2023-03-23T03:50:34;43.50;;;6.57;;
46216;SDS011;47258;59.424;13.482;2023-03-23T03:53:04;50.75;;;8.48;;
46216;SDS011;47258;59.424;13.482;2023-03-23T03:55:33;42.50;;;8.05;;
46216;SDS011;47258;59.424;13.482;2023-03-23T03:58:03;57.67;;;9.88;;
46216;SDS011;47258;59.424;13.482;2023-03-23T04:00:32;55.15;;;9.70;;
46216;SDS011;47258;59.424;13.482;2023-03-23T04:03:00;62.03;;;8.35;;
46216;SDS011;47258;59.424;13.482;2023-03-23T04:05:28;45.75;;;6.88;;
46216;SDS011;47258;59.424;13.482;2023-03-23T04:07:59;46.80;;;6.63;;
46216;SDS011;47258;59.424;13.482;2023-03-23T04:10:29;49.13;;;10.05;;
46216;SDS011;47258;59.424;13.482;2023-03-23T04:12:58;55.25;;;10.82;;
46216;SDS011;47258;59.424;13.482;2023-03-23T04:15:28;50.17;;;6.78;;
46216;SDS011;47258;59.424;13.482;2023-03-23T04:17:56;64.15;;;9.63;;
46216;SDS011;47258;59.424;13.482;2023-03-23T04:22:52;57.55;;;8.82;;
46216;SDS011;47258;59.424;13.482;2023-03-23T04:25:20;35.28;;;6.93;;
46216;SDS011;47258;59.424;13.482;2023-03-23T04:27:49;46.55;;;6.55;;
46216;SDS011;47258;59.424;13.482;2023-03-23T04:30:19;47.50;;;7.97;;
46216;SDS011;47258;59.424;13.482;2023-03-23T04:32:47;46.92;;;6.28;;
46216;SDS011;47258;59.424;13.482;2023-03-23T04:35:18;37.80;;;8.20;;
46216;SDS011;47258;59.424;13.482;2023-03-23T04:37:46;48.15;;;9.68;;
46216;SDS011;47258;59.424;13.482;2023-03-23T04:40:15;41.13;;;8.63;;
46216;SDS011;47258;59.424;13.482;2023-03-23T04:42:44;60.63;;;10.20;;
46216;SDS011;47258;59.424;13.482;2023-03-23T04:45:16;42.75;;;8.10;;
46216;SDS011;47258;59.424;13.482;2023-03-23T04:47:49;44.42;;;7.55;;
46216;SDS011;47258;59.424;13.482;2023-03-23T04:50:24;47.03;;;8.13;;
46216;SDS011;47258;59.424;13.482;2023-03-23T04:52:55;49.28;;;10.45;;
46216;SDS011;47258;59.424;13.482;2023-03-23T04:55:24;55.10;;;8.88;;
46216;SDS011;47258;59.424;13.482;2023-03-23T04:57:53;47.40;;;9.48;;
46216;SDS011;47258;59.424;13.482;2023-03-23T05:00:23;56.30;;;11.05;;
46216;SDS011;47258;59.424;13.482;2023-03-23T05:02:52;49.15;;;9.15;;
46216;SDS011;47258;59.424;13.482;2023-03-23T05:05:21;40.53;;;8.07;;
46216;SDS011;47258;59.424;13.482;2023-03-23T05:07:49;45.22;;;7.07;;
46216;SDS011;47258;59.424;13.482;2023-03-23T05:10:21;34.78;;;7.30;;
46216;SDS011;47258;59.424;13.482;2023-03-23T05:12:52;46.00;;;8.05;;
46216;SDS011;47258;59.424;13.482;2023-03-23T05:15:21;50.40;;;8.52;;
46216;SDS011;47258;59.424;13.482;2023-03-23T05:17:53;56.15;;;8.02;;
46216;SDS011;47258;59.424;13.482;2023-03-23T05:20:21;47.75;;;7.70;;
46216;SDS011;47258;59.424;13.482;2023-03-23T05:22:50;40.70;;;8.68;;
46216;SDS011;47258;59.424;13.482;2023-03-23T05:25:18;44.90;;;7.70;;
46216;SDS011;47258;59.424;13.482;2023-03-23T05:27:46;48.17;;;7.63;;
46216;SDS011;47258;59.424;13.482;2023-03-23T05:30:18;40.05;;;8.85;;
46216;SDS011;47258;59.424;13.482;2023-03-23T05:32:48;52.35;;;9.50;;
46216;SDS011;47258;59.424;13.482;2023-03-23T05:35:17;55.28;;;9.48;;
46216;SDS011;47258;59.424;13.482;2023-03-23T05:37:46;48.35;;;8.30;;
46216;SDS011;47258;59.424;13.482;2023-03-23T05:40:13;55.65;;;11.68;;
46216;SDS011;47258;59.424;13.482;2023-03-23T05:42:41;62.03;;;9.27;;
46216;SDS011;47258;59.424;13.482;2023-03-23T05:45:11;47.60;;;7.60;;
46216;SDS011;47258;59.424;13.482;2023-03-23T05:47:40;52.75;;;7.38;;
46216;SDS011;47258;59.424;13.482;2023-03-23T05:50:10;59.93;;;7.73;;
46216;SDS011;47258;59.424;13.482;2023-03-23T05:52:39;47.80;;;7.35;;
46216;SDS011;47258;59.424;13.482;2023-03-23T05:55:09;46.55;;;7.85;;
46216;SDS011;47258;59.424;13.482;2023-03-23T05:57:38;55.22;;;7.78;;
46216;SDS011;47258;59.424;13.482;2023-03-23T06:00:07;39.30;;;8.25;;
46216;SDS011;47258;59.424;13.482;2023-03-23T06:02:45;36.83;;;7.10;;
46216;SDS011;47258;59.424;13.482;2023-03-23T06:05:15;43.55;;;8.10;;
46216;SDS011;47258;59.424;13.482;2023-03-23T06:07:43;40.00;;;7.90;;
46216;SDS011;47258;59.424;13.482;2023-03-23T06:10:11;60.85;;;10.30;;
46216;SDS011;47258;59.424;13.482;2023-03-23T06:12:38;42.00;;;8.02;;
46216;SDS011;47258;59.424;13.482;2023-03-23T06:15:07;45.08;;;7.35;;
46216;SDS011;47258;59.424;13.482;2023-03-23T06:17:37;38.03;;;7.13;;
46216;SDS011;47258;59.424;13.482;2023-03-23T06:20:07;43.55;;;7.55;;
46216;SDS011;47258;59.424;13.482;2023-03-23T06:22:37;41.97;;;9.35;;
46216;SDS011;47258;59.424;13.482;2023-03-23T06:25:10;50.80;;;9.40;;
46216;SDS011;47258;59.424;13.482;2023-03-23T06:27:41;31.63;;;7.70;;
46216;SDS011;47258;59.424;13.482;2023-03-23T06:30:09;49.85;;;11.68;;
46216;SDS011;47258;59.424;13.482;2023-03-23T06:32:40;52.35;;;14.93;;
46216;SDS011;47258;59.424;13.482;2023-03-23T06:35:11;47.92;;;13.30;;
46216;SDS011;47258;59.424;13.482;2023-03-23T06:37:47;50.15;;;14.20;;
46216;SDS011;47258;59.424;13.482;2023-03-23T06:40:17;49.05;;;12.38;;
46216;SDS011;47258;59.424;13.482;2023-03-23T06:45:14;57.88;;;12.95;;
46216;SDS011;47258;59.424;13.482;2023-03-23T06:47:41;50.97;;;12.25;;
46216;SDS011;47258;59.424;13.482;2023-03-23T06:50:09;42.80;;;13.45;;
46216;SDS011;47258;59.424;13.482;2023-03-23T06:52:37;51.53;;;11.60;;
46216;SDS011;47258;59.424;13.482;2023-03-23T06:55:06;47.03;;;12.75;;
46216;SDS011;47258;59.424;13.482;2023-03-23T06:57:37;54.40;;;11.95;;
46216;SDS011;47258;59.424;13.482;2023-03-23T07:00:06;54.50;;;12.15;;
46216;SDS011;47258;59.424;13.482;2023-03-23T07:02:38;38.65;;;7.97;;
46216;SDS011;47258;59.424;13.482;2023-03-23T07:05:07;32.70;;;6.95;;
46216;SDS011;47258;59.424;13.482;2023-03-23T07:07:36;42.15;;;7.50;;
46216;SDS011;47258;59.424;13.482;2023-03-23T07:10:04;43.45;;;8.70;;
46216;SDS011;47258;59.424;13.482;2023-03-23T07:12:36;47.00;;;9.30;;
46216;SDS011;47258;59.424;13.482;2023-03-23T07:15:05;48.47;;;7.20;;
46216;SDS011;47258;59.424;13.482;2023-03-23T07:17:35;43.75;;;8.38;;
46216;SDS011;47258;59.424;13.482;2023-03-23T07:20:06;38.97;;;6.30;;
46216;SDS011;47258;59.424;13.482;2023-03-23T07:22:36;31.85;;;7.55;;
46216;SDS011;47258;59.424;13.482;2023-03-23T07:25:09;34.78;;;6.88;;
46216;SDS011;47258;59.424;13.482;2023-03-23T07:27:37;41.30;;;9.32;;
46216;SDS011;47258;59.424;13.482;2023-03-23T07:30:06;25.60;;;5.68;;
46216;SDS011;47258;59.424;13.482;2023-03-23T07:32:34;33.72;;;8.15;;
46216;SDS011;47258;59.424;13.482;2023-03-23T07:35:02;38.47;;;7.30;;
46216;SDS011;47258;59.424;13.482;2023-03-23T07:37:30;26.05;;;5.70;;
46216;SDS011;47258;59.424;13.482;2023-03-23T07:39:58;37.60;;;7.35;;
46216;SDS011;47258;59.424;13.482;2023-03-23T07:42:35;34.00;;;6.63;;
46216;SDS011;47258;59.424;13.482;2023-03-23T07:45:05;29.73;;;7.70;;
46216;SDS011;47258;59.424;13.482;2023-03-23T07:47:34;28.75;;;7.32;;
46216;SDS011;47258;59.424;13.482;2023-03-23T07:50:02;27.65;;;6.10;;
46216;SDS011;47258;59.424;13.482;2023-03-23T07:52:32;28.83;;;6.15;;
46216;SDS011;47258;59.424;13.482;2023-03-23T07:55:01;28.48;;;6.57;;
46216;SDS011;47258;59.424;13.482;2023-03-23T07:57:29;32.78;;;6.72;;
46216;SDS011;47258;59.424;13.482;2023-03-23T08:02:40;24.65;;;6.57;;
46216;SDS011;47258;59.424;13.482;2023-03-23T08:05:09;27.23;;;6.18;;
46216;SDS011;47258;59.424;13.482;2023-03-23T08:07:39;34.20;;;7.90;;
46216;SDS011;47258;59.424;13.482;2023-03-23T08:10:07;39.70;;;7.78;;
46216;SDS011;47258;59.424;13.482;2023-03-23T08:12:37;36.50;;;7.47;;
46216;SDS011;47258;59.424;13.482;2023-03-23T08:15:07;34.03;;;7.68;;
46216;SDS011;47258;59.424;13.482;2023-03-23T08:17:38;32.45;;;7.55;;
46216;SDS011;47258;59.424;13.482;2023-03-23T08:20:09;38.10;;;8.98;;
46216;SDS011;47258;59.424;13.482;2023-03-23T08:22:37;31.75;;;7.85;;
46216;SDS011;47258;59.424;13.482;2023-03-23T08:25:07;46.00;;;11.05;;
46216;SDS011;47258;59.424;13.482;2023-03-23T08:27:36;29.42;;;7.30;;
46216;SDS011;47258;59.424;13.482;2023-03-23T08:30:10;20.95;;;7.72;;
46216;SDS011;47258;59.424;13.482;2023-03-23T08:32:39;36.58;;;7.38;;
46216;SDS011;47258;59.424;13.482;2023-03-23T08:35:08;28.58;;;6.00;;
46216;SDS011;47258;59.424;13.482;2023-03-23T08:37:37;38.05;;;8.32;;
46216;SDS011;47258;59.424;13.482;2023-03-23T08:40:08;25.95;;;7.35;;
46216;SDS011;47258;59.424;13.482;2023-03-23T08:42:37;30.77;;;6.43;;
46216;SDS011;47258;59.424;13.482;2023-03-23T08:45:08;45.87;;;9.60;;
46216;SDS011;47258;59.424;13.482;2023-03-23T08:47:41;21.17;;;5.57;;
46216;SDS011;47258;59.424;13.482;2023-03-23T08:50:10;36.95;;;9.00;;
46216;SDS011;47258;59.424;13.482;2023-03-23T08:52:39;25.95;;;5.35;;
46216;SDS011;47258;59.424;13.482;2023-03-23T08:55:08;36.50;;;6.57;;
46216;SDS011;47258;59.424;13.482;2023-03-23T08:57:37;29.07;;;6.57;;
46216;SDS011;47258;59.424;13.482;2023-03-23T09:00:07;21.85;;;5.53;;
46216;SDS011;47258;59.424;13.482;2023-03-23T09:02:46;34.20;;;7.25;;
46216;SDS011;47258;59.424;13.482;2023-03-23T09:05:18;35.17;;;6.97;;
46216;SDS011;47258;59.424;13.482;2023-03-23T09:07:48;34.45;;;6.63;;
46216;SDS011;47258;59.424;13.482;2023-03-23T09:10:21;37.92;;;7.93;;
46216;SDS011;47258;59.424;13.482;2023-03-23T09:12:51;20.40;;;6.45;;
46216;SDS011;47258;59.424;13.482;2023-03-23T09:15:20;22.90;;;6.10;;
46216;SDS011;47258;59.424;13.482;2023-03-23T09:17:52;33.97;;;7.15;;
46216;SDS011;47258;59.424;13.482;2023-03-23T09:20:23;22.55;;;6.47;;
46216;SDS011;47258;59.424;13.482;2023-03-23T09:22:56;19.88;;;4.55;;
46216;SDS011;47258;59.424;13.482;2023-03-23T09:25:25;40.08;;;8.13;;
46216;SDS011;47258;59.424;13.482;2023-03-23T09:27:58;26.45;;;5.68;;
46216;SDS011;47258;59.424;13.482;2023-03-23T09:30:31;24.98;;;5.65;;
46216;SDS011;47258;59.424;13.482;2023-03-23T09:33:04;28.63;;;7.47;;
46216;SDS011;47258;59.424;13.482;2023-03-23T09:35:34;33.38;;;6.43;;
46216;SDS011;47258;59.424;13.482;2023-03-23T09:38:08;29.13;;;7.15;;
46216;SDS011;47258;59.424;13.482;2023-03-23T09:40:41;29.10;;;5.20;;
46216;SDS011;47258;59.424;13.482;2023-03-23T09:43:24;25.77;;;5.97;;
46216;SDS011;47258;59.424;13.482;2023-03-23T09:46:05;33.47;;;6.13;;
46216;SDS011;47258;59.424;13.482;2023-03-23T09:48:48;27.80;;;6.43;;
46216;SDS011;47258;59.424;13.482;2023-03-23T09:51:24;20.85;;;5.57;;
46216;SDS011;47258;59.424;13.482;2023-03-23T09:54:00;23.13;;;7.07;;
46216;SDS011;47258;59.424;13.482;2023-03-23T09:56:33;21.50;;;6.35;;
46216;SDS011;47258;59.424;13.482;2023-03-23T09:59:05;29.83;;;6.65;;
46216;SDS011;47258;59.424;13.482;2023-03-23T10:01:42;23.25;;;6.93;;
46216;SDS011;47258;59.424;13.482;2023-03-23T10:04:24;29.00;;;6.35;;
46216;SDS011;47258;59.424;13.482;2023-03-23T10:07:03;30.67;;;7.07;;
46216;SDS011;47258;59.424;13.482;2023-03-23T10:09:41;38.42;;;7.30;;
46216;SDS011;47258;59.424;13.482;2023-03-23T10:12:12;29.15;;;7.25;;
46216;SDS011;47258;59.424;13.482;2023-03-23T10:14:58;32.03;;;6.57;;
46216;SDS011;47258;59.424;13.482;2023-03-23T10:17:37;35.88;;;9.48;;
46216;SDS011;47258;59.424;13.482;2023-03-23T10:20:29;33.03;;;8.50;;
46216;SDS011;47258;59.424;13.482;2023-03-23T10:23:05;31.17;;;7.47;;
46216;SDS011;47258;59.424;13.482;2023-03-23T10:25:45;32.88;;;7.68;;
46216;SDS011;47258;59.424;13.482;2023-03-23T10:28:32;27.45;;;7.50;;
46216;SDS011;47258;59.424;13.482;2023-03-23T10:31:04;22.40;;;6.63;;
46216;SDS011;47258;59.424;13.482;2023-03-23T10:33:37;27.17;;;8.18;;
46216;SDS011;47258;59.424;13.482;2023-03-23T10:36:13;32.22;;;6.93;;
46216;SDS011;47258;59.424;13.482;2023-03-23T10:38:47;23.67;;;7.77;;
46216;SDS011;47258;59.424;13.482;2023-03-23T10:41:19;33.58;;;8.15;;
46216;SDS011;47258;59.424;13.482;2023-03-23T10:43:47;34.10;;;7.17;;
46216;SDS011;47258;59.424;13.482;2023-03-23T10:48:57;35.67;;;6.88;;
46216;SDS011;47258;59.424;13.482;2023-03-23T10:51:32;26.38;;;6.30;;
46216;SDS011;47258;59.424;13.482;2023-03-23T10:54:03;22.88;;;5.82;;
46216;SDS011;47258;59.424;13.482;2023-03-23T10:56:37;23.23;;;6.82;;
46216;SDS011;47258;59.424;13.482;2023-03-23T10:59:14;22.60;;;5.22;;
46216;SDS011;47258;59.424;13.482;2023-03-23T11:04:19;15.77;;;3.92;;
46216;SDS011;47258;59.424;13.482;2023-03-23T11:06:53;20.73;;;4.88;;
46216;SDS011;47258;59.424;13.482;2023-03-23T11:09:33;25.33;;;5.47;;
46216;SDS011;47258;59.424;13.482;2023-03-23T11:12:03;21.70;;;5.95;;
46216;SDS011;47258;59.424;13.482;2023-03-23T11:14:33;26.30;;;5.30;;
46216;SDS011;47258;59.424;13.482;2023-03-23T11:17:05;31.27;;;6.78;;
46216;SDS011;47258;59.424;13.482;2023-03-23T11:19:47;28.13;;;7.07;;
46216;SDS011;47258;59.424;13.482;2023-03-23T11:22:22;27.33;;;7.72;;
46216;SDS011;47258;59.424;13.482;2023-03-23T11:24:54;24.60;;;6.78;;
46216;SDS011;47258;59.424;13.482;2023-03-23T11:27:26;34.40;;;7.53;;
46216;SDS011;47258;59.424;13.482;2023-03-23T11:29:55;21.98;;;5.50;;
46216;SDS011;47258;59.424;13.482;2023-03-23T11:32:26;43.38;;;7.40;;
46216;SDS011;47258;59.424;13.482;2023-03-23T11:34:56;25.17;;;6.45;;
46216;SDS011;47258;59.424;13.482;2023-03-23T11:37:29;29.17;;;7.88;;
46216;SDS011;47258;59.424;13.482;2023-03-23T11:39:59;31.48;;;7.68;;
46216;SDS011;47258;59.424;13.482;2023-03-23T11:42:37;40.00;;;8.10;;
46216;SDS011;47258;59.424;13.482;2023-03-23T11:45:17;39.00;;;8.23;;
46216;SDS011;47258;59.424;13.482;2023-03-23T11:47:49;29.00;;;7.40;;
46216;SDS011;47258;59.424;13.482;2023-03-23T11:50:24;45.33;;;7.60;;
46216;SDS011;47258;59.424;13.482;2023-03-23T11:52:55;20.40;;;7.40;;
46216;SDS011;47258;59.424;13.482;2023-03-23T11:55:30;28.27;;;7.03;;
46216;SDS011;47258;59.424;13.482;2023-03-23T11:58:02;39.97;;;9.35;;
46216;SDS011;47258;59.424;13.482;2023-03-23T12:00:37;33.63;;;8.25;;
46216;SDS011;47258;59.424;13.482;2023-03-23T12:03:11;33.63;;;7.70;;
46216;SDS011;47258;59.424;13.482;2023-03-23T12:06:00;30.15;;;8.00;;
46216;SDS011;47258;59.424;13.482;2023-03-23T12:08:39;26.38;;;6.97;;
46216;SDS011;47258;59.424;13.482;2023-03-23T12:11:24;27.58;;;6.15;;
46216;SDS011;47258;59.424;13.482;2023-03-23T12:14:08;29.75;;;6.32;;
46216;SDS011;47258;59.424;13.482;2023-03-23T12:16:47;33.75;;;7.53;;
46216;SDS011;47258;59.424;13.482;2023-03-23T12:19:21;29.00;;;6.32;;
46216;SDS011;47258;59.424;13.482;2023-03-23T12:21:58;29.33;;;6.90;;
46216;SDS011;47258;59.424;13.482;2023-03-23T12:24:46;20.90;;;6.57;;
46216;SDS011;47258;59.424;13.482;2023-03-23T12:27:21;39.85;;;12.57;;
46216;SDS011;47258;59.424;13.482;2023-03-23T12:30:01;21.95;;;10.10;;
46216;SDS011;47258;59.424;13.482;2023-03-23T12:32:49;25.75;;;10.93;;
46216;SDS011;47258;59.424;13.482;2023-03-23T12:35:27;31.20;;;10.88;;
46216;SDS011;47258;59.424;13.482;2023-03-23T12:38:08;25.98;;;9.27;;
46216;SDS011;47258;59.424;13.482;2023-03-23T12:40:55;26.70;;;9.35;;
46216;SDS011;47258;59.424;13.482;2023-03-23T12:43:34;21.95;;;6.88;;
46216;SDS011;47258;59.424;13.482;2023-03-23T12:46:14;23.23;;;6.53;;
46216;SDS011;47258;59.424;13.482;2023-03-23T12:48:53;31.88;;;6.60;;
46216;SDS011;47258;59.424;13.482;2023-03-23T12:51:27;20.40;;;6.75;;
46216;SDS011;47258;59.424;13.482;2023-03-23T12:54:10;23.08;;;6.13;;
46216;SDS011;47258;59.424;13.482;2023-03-23T12:56:45;22.85;;;7.65;;
46216;SDS011;47258;59.424;13.482;2023-03-23T12:59:17;21.95;;;6.70;;
46216;SDS011;47258;59.424;13.482;2023-03-23T13:01:52;29.88;;;6.75;;
46216;SDS011;47258;59.424;13.482;2023-03-23T13:04:25;23.75;;;6.82;;
46216;SDS011;47258;59.424;13.482;2023-03-23T13:06:57;17.08;;;4.90;;
46216;SDS011;47258;59.424;13.482;2023-03-23T13:09:29;22.30;;;5.43;;
46216;SDS011;47258;59.424;13.482;2023-03-23T13:12:03;25.77;;;5.75;;
46216;SDS011;47258;59.424;13.482;2023-03-23T13:14:34;24.00;;;5.78;;
46216;SDS011;47258;59.424;13.482;2023-03-23T13:17:11;20.95;;;4.95;;
46216;SDS011;47258;59.424;13.482;2023-03-23T13:19:54;33.20;;;7.15;;
46216;SDS011;47258;59.424;13.482;2023-03-23T13:22:33;28.05;;;6.45;;
46216;SDS011;47258;59.424;13.482;2023-03-23T13:25:07;24.83;;;5.93;;
46216;SDS011;47258;59.424;13.482;2023-03-23T13:27:40;24.58;;;5.10;;
46216;SDS011;47258;59.424;13.482;2023-03-23T13:30:17;20.38;;;5.85;;
46216;SDS011;47258;59.424;13.482;2023-03-23T13:32:49;28.08;;;6.28;;
46216;SDS011;47258;59.424;13.482;2023-03-23T13:35:18;23.52;;;5.45;;
46216;SDS011;47258;59.424;13.482;2023-03-23T13:37:47;22.52;;;5.75;;
46216;SDS011;47258;59.424;13.482;2023-03-23T13:40:20;14.80;;;4.78;;
46216;SDS011;47258;59.424;13.482;2023-03-23T13:42:55;26.80;;;6.15;;
46216;SDS011;47258;59.424;13.482;2023-03-23T13:45:24;21.67;;;5.68;;
46216;SDS011;47258;59.424;13.482;2023-03-23T13:48:18;27.52;;;6.20;;
46216;SDS011;47258;59.424;13.482;2023-03-23T13:50:50;17.17;;;5.20;;
46216;SDS011;47258;59.424;13.482;2023-03-23T13:53:24;22.55;;;4.90;;
46216;SDS011;47258;59.424;13.482;2023-03-23T13:56:05;22.85;;;4.15;;
46216;SDS011;47258;59.424;13.482;2023-03-23T13:58:44;22.30;;;5.28;;
46216;SDS011;47258;59.424;13.482;2023-03-23T14:01:15;21.83;;;5.53;;
46216;SDS011;47258;59.424;13.482;2023-03-23T14:03:45;17.83;;;4.85;;
46216;SDS011;47258;59.424;13.482;2023-03-23T14:06:16;26.00;;;5.43;;
46216;SDS011;47258;59.424;13.482;2023-03-23T14:08:47;28.88;;;7.13;;
46216;SDS011;47258;59.424;13.482;2023-03-23T14:11:19;35.15;;;6.07;;
46216;SDS011;47258;59.424;13.482;2023-03-23T14:13:57;40.25;;;4.72;;
46216;SDS011;47258;59.424;13.482;2023-03-23T14:16:31;14.80;;;4.18;;
46216;SDS011;47258;59.424;13.482;2023-03-23T14:19:03;19.05;;;4.65;;
46216;SDS011;47258;59.424;13.482;2023-03-23T14:21:40;29.38;;;5.38;;
46216;SDS011;47258;59.424;13.482;2023-03-23T14:24:10;16.20;;;4.05;;
46216;SDS011;47258;59.424;13.482;2023-03-23T14:26:39;15.57;;;3.92;;
46216;SDS011;47258;59.424;13.482;2023-03-23T14:29:10;18.45;;;4.45;;
46216;SDS011;47258;59.424;13.482;2023-03-23T14:31:38;24.88;;;5.68;;
46216;SDS011;47258;59.424;13.482;2023-03-23T14:34:11;18.08;;;5.35;;
46216;SDS011;47258;59.424;13.482;2023-03-23T14:36:40;18.05;;;4.78;;
46216;SDS011;47258;59.424;13.482;2023-03-23T14:39:13;26.52;;;4.28;;
46216;SDS011;47258;59.424;13.482;2023-03-23T14:41:43;27.20;;;4.90;;
46216;SDS011;47258;59.424;13.482;2023-03-23T14:44:14;20.98;;;6.28;;
46216;SDS011;47258;59.424;13.482;2023-03-23T14:46:43;20.42;;;4.70;;
46216;SDS011;47258;59.424;13.482;2023-03-23T14:49:13;29.50;;;6.47;;
46216;SDS011;47258;59.424;13.482;2023-03-23T14:51:47;22.52;;;5.78;;
46216;SDS011;47258;59.424;13.482;2023-03-23T14:54:18;22.58;;;6.88;;
46216;SDS011;47258;59.424;13.482;2023-03-23T14:56:49;24.58;;;5.28;;
46216;SDS011;47258;59.424;13.482;2023-03-23T14:59:17;18.33;;;5.05;;
46216;SDS011;47258;59.424;13.482;2023-03-23T15:01:45;22.20;;;5.82;;
46216;SDS011;47258;59.424;13.482;2023-03-23T15:04:15;22.23;;;6.30;;
46216;SDS011;47258;59.424;13.482;2023-03-23T15:06:46;18.08;;;6.05;;
46216;SDS011;47258;59.424;13.482;2023-03-23T15:09:18;37.67;;;7.63;;
46216;SDS011;47258;59.424;13.482;2023-03-23T15:11:51;16.00;;;5.75;;
46216;SDS011;47258;59.424;13.482;2023-03-23T15:14:23;28.92;;;6.13;;
46216;SDS011;47258;59.424;13.482;2023-03-23T15:16:54;19.55;;;5.30;;
46216;SDS011;47258;59.424;13.482;2023-03-23T15:21:52;16.08;;;5.68;;